Time;durP1;ratioP1;P1;durP2;ratioP2;P2;SDS_P1;SDS_P2;PMS_P1;PMS_P2;Temp;Humidity;BMP_temperature;BMP_pressure;BME280_temperature;BME280_humidity;BME280_pressure;Samples;Min_cycle;Max_cycle;Signal;HPM_P1;HPM_P2
2023/10/28 00:02:23;;;;;;;10.38;7.38;;;8.80;99.90;;;;;;5041194;28;20383;-79
2023/10/28 00:04:49;;;;;;;12.60;8.32;;;8.90;99.90;;;;;;5057334;28;20191;-80
2023/10/28 00:07:15;;;;;;;11.40;7.53;;;8.90;99.90;;;;;;5040557;28;20060;-82
2023/10/28 00:09:42;;;;;;;11.55;7.47;;;8.90;99.90;;;;;;5041060;28;20051;-81
2023/10/28 00:12:08;;;;;;;10.77;8.07;;;8.90;99.90;;;;;;5025547;28;20032;-79
2023/10/28 00:14:34;;;;;;;14.32;7.88;;;8.90;99.90;;;;;;5040615;28;20036;-79
2023/10/28 00:17:01;;;;;;;9.93;7.57;;;8.90;99.90;;;;;;5044189;28;20040;-80
2023/10/28 00:19:29;;;;;;;9.50;7.43;;;8.90;99.90;;;;;;5025651;28;20044;-80
2023/10/28 00:21:55;;;;;;;13.15;7.53;;;8.90;99.90;;;;;;5025150;28;20039;-81
2023/10/28 00:24:22;;;;;;;11.05;7.80;;;9.00;99.90;;;;;;5037650;28;20498;-83
2023/10/28 00:26:48;;;;;;;12.52;8.43;;;9.00;99.90;;;;;;5057749;28;20549;-80
2023/10/28 00:29:14;;;;;;;11.77;8.45;;;9.00;99.90;;;;;;5040005;28;20502;-81
2023/10/28 00:31:41;;;;;;;15.55;8.77;;;9.10;99.90;;;;;;5075402;28;20076;-81
2023/10/28 00:34:08;;;;;;;13.30;8.27;;;9.10;99.90;;;;;;5039452;28;20036;-81
2023/10/28 00:36:36;;;;;;;10.75;7.93;;;9.10;99.90;;;;;;5039691;28;20462;-83
2023/10/28 00:39:03;;;;;;;11.95;7.88;;;9.10;99.90;;;;;;5056771;28;20042;-83
2023/10/28 00:41:43;;;;;;;10.60;8.02;;;9.10;99.90;;;;;;5035860;28;20400;-84
2023/10/28 00:44:10;;;;;;;11.10;7.25;;;9.10;99.90;;;;;;5032846;28;20017;-80
2023/10/28 00:46:37;;;;;;;14.23;7.82;;;9.10;99.90;;;;;;5001109;28;20593;-82
2023/10/28 00:49:05;;;;;;;11.68;9.10;;;9.20;99.90;;;;;;5016416;28;20022;-84
2023/10/28 00:51:32;;;;;;;11.43;8.68;;;9.20;99.90;;;;;;5000551;28;20029;-80
2023/10/28 00:53:58;;;;;;;15.40;9.18;;;9.30;99.90;;;;;;5029992;28;20040;-83
2023/10/28 00:56:25;;;;;;;13.20;8.57;;;9.30;99.90;;;;;;5028473;28;20036;-82
2023/10/28 00:58:52;;;;;;;15.45;7.72;;;9.30;99.90;;;;;;5016450;28;20060;-82
2023/10/28 01:01:19;;;;;;;12.38;7.95;;;9.30;99.90;;;;;;5015433;28;20380;-80
2023/10/28 01:03:47;;;;;;;14.32;8.05;;;9.40;99.90;;;;;;5017232;28;20029;-86
2023/10/28 01:06:14;;;;;;;10.43;7.65;;;9.30;99.90;;;;;;5008828;28;20044;-82
2023/10/28 01:08:40;;;;;;;10.20;7.63;;;9.40;99.90;;;;;;5015426;28;20029;-81
2023/10/28 01:11:06;;;;;;;10.35;6.80;;;9.40;99.90;;;;;;4998775;28;20033;-82
2023/10/28 01:13:33;;;;;;;11.13;7.03;;;9.50;99.90;;;;;;5032819;28;20033;-83
2023/10/28 01:16:00;;;;;;;10.50;7.90;;;9.50;99.90;;;;;;5034234;28;20037;-82
2023/10/28 01:18:26;;;;;;;11.00;7.35;;;9.60;99.90;;;;;;5015370;28;20052;-80
2023/10/28 01:20:53;;;;;;;13.23;7.97;;;9.60;99.90;;;;;;5015909;28;20032;-81
2023/10/28 01:23:19;;;;;;;13.57;7.78;;;9.60;99.90;;;;;;5000727;28;20040;-83
2023/10/28 01:25:46;;;;;;;12.38;7.07;;;9.70;99.90;;;;;;5015234;28;20044;-79
2023/10/28 01:28:13;;;;;;;11.90;7.55;;;9.70;99.90;;;;;;5015443;28;20068;-82
2023/10/28 01:30:39;;;;;;;13.57;7.30;;;9.80;99.90;;;;;;5016004;28;20029;-81
2023/10/28 01:33:06;;;;;;;13.82;7.82;;;9.80;99.90;;;;;;5031225;28;20033;-82
2023/10/28 01:35:32;;;;;;;20.95;9.50;;;9.90;99.90;;;;;;5014656;28;20735;-84
2023/10/28 01:37:59;;;;;;;11.60;8.55;;;9.90;99.90;;;;;;4999169;28;20029;-81
2023/10/28 01:40:26;;;;;;;11.10;7.90;;;10.00;99.90;;;;;;5031191;28;20044;-80
2023/10/28 01:42:52;;;;;;;12.82;7.93;;;10.00;99.90;;;;;;5015232;28;20436;-84
2023/10/28 01:45:21;;;;;;;12.98;8.30;;;10.10;99.90;;;;;;5045085;28;20033;-80
2023/10/28 01:47:47;;;;;;;10.77;7.35;;;10.10;99.90;;;;;;5032078;28;20041;-80
2023/10/28 01:50:14;;;;;;;12.40;7.55;;;10.10;99.90;;;;;;5014843;28;20056;-84
2023/10/28 01:52:42;;;;;;;11.32;6.78;;;10.10;99.90;;;;;;5001823;28;20819;-81
2023/10/28 01:55:09;;;;;;;12.15;7.18;;;10.20;99.90;;;;;;5019314;28;20396;-80
2023/10/28 01:57:35;;;;;;;12.15;6.72;;;10.20;99.90;;;;;;4985979;28;20024;-82
2023/10/28 02:00:12;;;;;;;10.32;6.15;;;10.20;99.90;;;;;;4985123;28;20815;-80
2023/10/28 02:02:39;;;;;;;14.07;7.20;;;10.20;99.90;;;;;;5029264;28;20021;-82
2023/10/28 02:05:06;;;;;;;14.23;5.97;;;10.20;99.90;;;;;;5005131;28;20465;-83
2023/10/28 02:07:35;;;;;;;10.88;6.45;;;10.20;99.90;;;;;;5050972;28;20033;-80
2023/10/28 02:10:02;;;;;;;10.13;5.28;;;10.20;99.90;;;;;;5021047;28;20484;-81
2023/10/28 02:12:29;;;;;;;6.78;5.28;;;10.20;99.90;;;;;;5001935;28;20029;-81
2023/10/28 02:14:56;;;;;;;8.43;4.90;;;10.20;99.90;;;;;;5018656;28;20038;-85
2023/10/28 02:17:24;;;;;;;6.20;4.63;;;10.20;99.90;;;;;;4987555;28;20021;-82
2023/10/28 02:19:51;;;;;;;8.88;5.25;;;10.30;99.90;;;;;;4987878;28;20040;-82
2023/10/28 02:22:17;;;;;;;8.85;5.40;;;10.30;99.90;;;;;;4985066;28;20026;-81
2023/10/28 02:24:44;;;;;;;9.35;5.32;;;10.30;99.90;;;;;;5021202;28;20041;-81
2023/10/28 02:27:11;;;;;;;11.40;5.50;;;10.30;99.90;;;;;;5020210;28;20033;-82
2023/10/28 02:29:37;;;;;;;7.53;5.57;;;10.30;99.90;;;;;;5019344;28;20452;-80
2023/10/28 02:32:07;;;;;;;8.80;4.80;;;10.20;99.90;;;;;;5035758;28;20504;-84
2023/10/28 02:34:34;;;;;;;7.43;4.85;;;10.30;99.90;;;;;;4987040;28;20028;-80
2023/10/28 02:37:01;;;;;;;7.78;5.07;;;10.30;99.90;;;;;;5032162;28;20033;-80
2023/10/28 02:39:27;;;;;;;7.85;4.63;;;10.30;99.90;;;;;;5001244;28;20374;-80
2023/10/28 02:41:54;;;;;;;11.60;6.00;;;10.30;99.90;;;;;;5018048;28;20466;-81
2023/10/28 02:44:21;;;;;;;10.80;4.75;;;10.30;99.90;;;;;;5000719;28;20469;-84
2023/10/28 02:46:48;;;;;;;8.68;5.13;;;10.30;99.90;;;;;;5019119;28;20037;-84
2023/10/28 02:49:14;;;;;;;11.50;5.07;;;10.30;99.90;;;;;;4984684;28;20029;-81
2023/10/28 02:51:40;;;;;;;9.13;4.80;;;10.30;99.90;;;;;;5004162;28;20029;-83
2023/10/28 02:54:07;;;;;;;7.15;4.45;;;10.30;99.90;;;;;;5002083;28;20030;-82
2023/10/28 02:56:33;;;;;;;6.10;4.03;;;10.30;99.90;;;;;;5011885;28;20044;-84
2023/10/28 02:58:59;;;;;;;6.78;4.18;;;10.30;99.90;;;;;;5001636;28;20045;-82
2023/10/28 03:01:26;;;;;;;6.13;3.50;;;10.30;99.90;;;;;;5002284;28;20045;-81
2023/10/28 03:03:52;;;;;;;7.88;4.65;;;10.30;99.90;;;;;;4998552;28;20042;-81
2023/10/28 03:06:19;;;;;;;8.10;3.80;;;10.30;99.90;;;;;;5032555;28;20060;-82
2023/10/28 03:08:45;;;;;;;7.65;3.67;;;10.30;99.90;;;;;;4999639;28;20044;-81
2023/10/28 03:11:12;;;;;;;6.30;3.85;;;10.20;99.90;;;;;;5018509;28;20045;-81
2023/10/28 03:13:39;;;;;;;6.13;3.70;;;10.20;99.90;;;;;;5015703;28;20376;-83
2023/10/28 03:16:05;;;;;;;5.03;3.88;;;10.20;99.90;;;;;;5000820;28;20065;-82
2023/10/28 03:18:32;;;;;;;5.30;3.30;;;10.20;99.90;;;;;;5000680;28;20037;-82
2023/10/28 03:20:58;;;;;;;5.60;3.67;;;10.20;99.90;;;;;;5000717;28;20052;-81
2023/10/28 03:23:25;;;;;;;4.78;3.22;;;10.20;99.90;;;;;;4983332;28;20030;-81
2023/10/28 03:25:52;;;;;;;5.47;3.40;;;10.30;99.90;;;;;;5016818;28;20476;-81
2023/10/28 03:28:18;;;;;;;4.85;3.40;;;10.30;99.90;;;;;;5001042;28;20032;-81
2023/10/28 03:30:44;;;;;;;13.73;6.22;;;10.30;99.90;;;;;;4999233;28;20407;-81
2023/10/28 03:33:10;;;;;;;6.82;4.20;;;10.30;99.90;;;;;;5016603;28;20036;-80
2023/10/28 03:35:37;;;;;;;5.55;2.90;;;10.30;99.90;;;;;;4999151;28;20392;-82
2023/10/28 03:38:03;;;;;;;7.15;3.50;;;10.30;99.90;;;;;;4983038;28;20033;-80
2023/10/28 03:40:29;;;;;;;9.00;4.13;;;10.30;99.90;;;;;;4984159;28;20048;-83
2023/10/28 03:42:56;;;;;;;6.40;3.40;;;10.30;99.90;;;;;;4999965;28;20054;-81
2023/10/28 03:45:23;;;;;;;6.30;3.47;;;10.40;99.90;;;;;;5018672;28;20029;-80
2023/10/28 03:47:49;;;;;;;6.25;2.95;;;10.40;99.90;;;;;;5001445;28;20049;-80
2023/10/28 03:50:15;;;;;;;6.38;3.30;;;10.30;99.90;;;;;;5003124;28;20292;-82
2023/10/28 03:52:42;;;;;;;6.10;3.22;;;10.30;99.90;;;;;;5007585;28;20052;-82
2023/10/28 03:55:08;;;;;;;5.55;3.20;;;10.30;99.90;;;;;;4999212;28;20044;-82
2023/10/28 03:57:35;;;;;;;4.85;2.85;;;10.30;99.90;;;;;;4999490;28;20029;-83
2023/10/28 04:00:01;;;;;;;5.05;2.75;;;10.30;99.90;;;;;;4999667;28;20025;-82
2023/10/28 04:02:28;;;;;;;4.25;2.78;;;10.30;99.90;;;;;;5016922;28;20384;-84
2023/10/28 04:04:55;;;;;;;5.32;2.60;;;10.30;99.90;;;;;;5015214;28;20033;-82
2023/10/28 04:07:21;;;;;;;5.40;2.60;;;10.40;99.90;;;;;;5017128;28;20376;-83
2023/10/28 04:09:47;;;;;;;6.38;2.47;;;10.40;99.90;;;;;;5018111;28;20025;-82
2023/10/28 04:12:15;;;;;;;4.38;2.40;;;10.30;99.90;;;;;;5016272;28;20053;-82
2023/10/28 04:14:42;;;;;;;4.10;2.17;;;10.40;99.90;;;;;;5046162;28;20293;-83
2023/10/28 04:17:08;;;;;;;4.70;2.55;;;10.40;99.90;;;;;;5000084;28;20040;-80
2023/10/28 04:19:34;;;;;;;6.50;2.47;;;10.40;99.90;;;;;;4998876;28;20057;-83
2023/10/28 04:22:01;;;;;;;3.17;1.75;;;10.40;99.90;;;;;;4999184;28;20048;-83
2023/10/28 04:24:27;;;;;;;4.30;2.17;;;10.40;99.90;;;;;;5016989;28;22130;-83
2023/10/28 04:26:54;;;;;;;5.18;2.70;;;10.40;99.90;;;;;;4999299;28;20044;-85
2023/10/28 04:29:20;;;;;;;4.25;2.28;;;10.40;99.90;;;;;;5013894;28;20033;-81
2023/10/28 04:31:47;;;;;;;3.58;1.90;;;10.40;99.90;;;;;;5016584;28;20471;-83
2023/10/28 04:34:13;;;;;;;4.53;1.65;;;10.40;99.90;;;;;;5017442;28;20040;-82
2023/10/28 04:36:40;;;;;;;6.25;2.80;;;10.40;99.90;;;;;;5012156;28;20389;-80
2023/10/28 04:39:06;;;;;;;4.45;2.15;;;10.40;99.90;;;;;;5030500;28;20069;-81
2023/10/28 04:41:33;;;;;;;5.07;2.60;;;10.40;99.90;;;;;;4999909;28;20503;-82
2023/10/28 04:44:01;;;;;;;5.25;2.60;;;10.40;99.90;;;;;;4995018;28;20037;-83
2023/10/28 04:46:29;;;;;;;4.38;2.83;;;10.40;99.90;;;;;;5030838;28;20029;-82
2023/10/28 04:48:56;;;;;;;5.53;2.95;;;10.40;99.90;;;;;;4998059;28;20039;-83
2023/10/28 04:51:22;;;;;;;9.40;4.05;;;10.40;99.90;;;;;;5001151;28;20048;-81
2023/10/28 04:53:48;;;;;;;6.78;3.38;;;10.40;99.90;;;;;;4998881;28;20040;-81
2023/10/28 04:56:15;;;;;;;6.55;3.28;;;10.40;99.90;;;;;;5001240;28;20472;-84
2023/10/28 04:58:41;;;;;;;5.28;3.20;;;10.40;99.90;;;;;;5000063;28;20029;-84
2023/10/28 05:01:07;;;;;;;4.63;2.67;;;10.40;99.90;;;;;;4997176;28;20412;-82
2023/10/28 05:03:34;;;;;;;6.57;3.83;;;10.40;99.90;;;;;;5032151;28;20045;-82
2023/10/28 05:06:01;;;;;;;5.13;2.90;;;10.40;99.90;;;;;;4998715;28;20440;-82
2023/10/28 05:08:28;;;;;;;4.00;2.65;;;10.40;99.90;;;;;;4999493;28;20025;-81
2023/10/28 05:10:55;;;;;;;4.80;2.80;;;10.50;99.90;;;;;;5015664;28;20404;-84
2023/10/28 05:13:21;;;;;;;5.60;3.10;;;10.50;99.90;;;;;;5000882;28;20380;-81
2023/10/28 05:15:48;;;;;;;5.05;3.13;;;10.50;99.90;;;;;;5015562;28;20457;-82
2023/10/28 05:18:14;;;;;;;7.75;3.38;;;10.40;99.90;;;;;;5015544;28;20072;-81
2023/10/28 05:20:40;;;;;;;6.10;3.33;;;10.40;99.90;;;;;;5016566;28;20033;-82
2023/10/28 05:23:07;;;;;;;9.43;4.28;;;10.40;99.90;;;;;;4982636;28;20045;-81
2023/10/28 05:25:33;;;;;;;7.13;3.92;;;10.40;99.90;;;;;;5015488;28;20500;-81
2023/10/28 05:27:59;;;;;;;5.32;3.15;;;10.50;99.90;;;;;;5018019;28;20380;-82
2023/10/28 05:30:26;;;;;;;4.78;3.03;;;10.40;99.90;;;;;;5005035;28;20029;-82
2023/10/28 05:32:52;;;;;;;5.55;3.60;;;10.40;99.90;;;;;;5016720;28;20036;-85
2023/10/28 05:35:18;;;;;;;6.15;3.33;;;10.40;99.90;;;;;;5002369;28;20048;-84
2023/10/28 05:37:45;;;;;;;6.43;3.50;;;10.40;99.90;;;;;;5003218;28;20048;-83
2023/10/28 05:40:13;;;;;;;6.68;3.60;;;10.50;99.90;;;;;;4988587;28;20037;-82
2023/10/28 05:42:39;;;;;;;6.32;3.38;;;10.50;99.90;;;;;;5010551;28;20042;-83
2023/10/28 05:45:07;;;;;;;6.00;3.40;;;10.50;99.90;;;;;;5020094;28;20038;-83
2023/10/28 05:47:34;;;;;;;5.70;3.78;;;10.50;99.90;;;;;;5016186;28;20046;-82
2023/10/28 05:50:05;;;;;;;5.50;3.28;;;10.50;99.90;;;;;;5019732;28;20028;-82
2023/10/28 05:52:33;;;;;;;6.13;3.25;;;10.50;99.90;;;;;;4986235;28;20037;-84
2023/10/28 05:54:59;;;;;;;4.78;3.53;;;10.50;99.90;;;;;;5021256;28;20041;-81
2023/10/28 05:57:26;;;;;;;4.97;3.17;;;10.50;99.90;;;;;;5002457;28;20551;-82
2023/10/28 05:59:53;;;;;;;4.22;3.35;;;10.50;99.90;;;;;;5001561;28;20033;-80
2023/10/28 06:02:19;;;;;;;6.80;3.92;;;10.50;99.90;;;;;;5003068;28;20037;-80
2023/10/28 06:04:46;;;;;;;5.63;3.35;;;10.50;99.90;;;;;;5002162;28;20072;-80
2023/10/28 06:07:12;;;;;;;5.35;3.33;;;10.50;99.90;;;;;;5019901;28;20021;-82
2023/10/28 06:09:38;;;;;;;7.65;3.63;;;10.50;99.90;;;;;;5019684;28;20040;-81
2023/10/28 06:12:05;;;;;;;7.50;4.18;;;10.50;99.90;;;;;;4979892;28;20026;-80
2023/10/28 06:14:31;;;;;;;6.60;3.88;;;10.40;99.90;;;;;;5032949;28;20057;-80
2023/10/28 06:16:57;;;;;;;8.05;3.50;;;10.50;99.90;;;;;;5017853;28;20372;-82
2023/10/28 06:19:24;;;;;;;6.43;3.80;;;10.40;99.90;;;;;;5001574;28;20468;-82
2023/10/28 06:21:51;;;;;;;9.25;5.50;;;10.40;99.90;;;;;;5003098;28;20476;-82
2023/10/28 06:24:20;;;;;;;5.78;3.88;;;10.50;99.90;;;;;;5001209;28;22570;-86
2023/10/28 06:26:46;;;;;;;6.05;4.10;;;10.50;99.90;;;;;;4985966;28;20415;-81
2023/10/28 06:29:13;;;;;;;6.45;4.00;;;10.50;99.90;;;;;;5018020;28;20057;-82
2023/10/28 06:31:40;;;;;;;7.07;4.60;;;10.40;99.90;;;;;;5002169;28;20464;-84
2023/10/28 06:34:06;;;;;;;8.23;4.15;;;10.50;99.90;;;;;;5001541;28;20032;-82
2023/10/28 06:36:33;;;;;;;9.52;4.57;;;10.50;99.90;;;;;;5002117;28;20041;-81
2023/10/28 06:38:59;;;;;;;7.07;4.22;;;10.50;99.90;;;;;;5001356;28;20349;-83
2023/10/28 06:41:26;;;;;;;12.10;5.95;;;10.50;99.90;;;;;;4984407;28;20440;-80
2023/10/28 06:43:55;;;;;;;7.57;4.80;;;10.50;99.90;;;;;;4985298;28;20457;-81
2023/10/28 06:46:21;;;;;;;9.57;5.22;;;10.50;99.90;;;;;;5049805;28;20030;-80
2023/10/28 06:48:47;;;;;;;7.78;5.22;;;10.50;99.90;;;;;;5018290;28;20033;-81
2023/10/28 06:51:13;;;;;;;9.40;4.55;;;10.50;99.90;;;;;;5001691;28;20029;-81
2023/10/28 06:53:43;;;;;;;8.65;5.15;;;10.50;99.90;;;;;;5018585;28;20487;-80
2023/10/28 06:56:09;;;;;;;9.27;5.63;;;10.50;99.90;;;;;;4985045;28;20033;-82
2023/10/28 06:58:35;;;;;;;12.27;6.18;;;10.50;99.90;;;;;;5001716;28;20468;-83
2023/10/28 07:01:04;;;;;;;9.00;5.80;;;10.50;99.90;;;;;;4983916;28;20041;-80
2023/10/28 07:03:30;;;;;;;11.93;6.18;;;10.50;99.90;;;;;;5001019;28;20041;-81
2023/10/28 07:05:56;;;;;;;8.70;5.20;;;10.60;99.90;;;;;;5017346;28;20028;-80
2023/10/28 07:08:23;;;;;;;13.23;6.10;;;10.50;99.90;;;;;;5000752;28;20036;-81
2023/10/28 07:10:49;;;;;;;9.48;5.57;;;10.60;99.90;;;;;;5001914;28;20025;-80
2023/10/28 07:13:16;;;;;;;8.73;4.88;;;10.60;99.90;;;;;;5015962;28;20872;-83
2023/10/28 07:15:42;;;;;;;11.38;5.05;;;10.60;99.90;;;;;;4977782;28;20068;-79
2023/10/28 07:18:08;;;;;;;9.75;6.43;;;10.60;99.90;;;;;;4999725;28;20352;-84
2023/10/28 07:20:35;;;;;;;12.18;8.27;;;10.60;99.90;;;;;;4983617;28;20036;-83
2023/10/28 07:23:02;;;;;;;14.55;7.43;;;10.70;99.90;;;;;;5000348;28;20033;-82
2023/10/28 07:25:29;;;;;;;11.20;7.18;;;10.70;99.90;;;;;;5016647;28;20044;-81
2023/10/28 07:27:55;;;;;;;11.60;5.90;;;10.70;99.90;;;;;;5031112;28;20041;-83
2023/10/28 07:30:22;;;;;;;9.95;5.68;;;10.70;99.90;;;;;;5027270;28;20034;-80
2023/10/28 07:32:49;;;;;;;6.68;4.50;;;10.70;99.90;;;;;;5015491;28;20033;-81
2023/10/28 07:35:19;;;;;;;10.68;5.10;;;10.70;99.90;;;;;;4999464;28;20049;-82
2023/10/28 07:37:46;;;;;;;8.48;4.63;;;10.80;99.90;;;;;;5017356;28;20040;-78
2023/10/28 07:40:12;;;;;;;9.93;4.65;;;10.80;99.90;;;;;;4999929;28;20056;-82
2023/10/28 07:42:39;;;;;;;7.05;4.97;;;10.80;99.90;;;;;;4999704;28;20041;-81
2023/10/28 07:45:05;;;;;;;10.25;6.43;;;10.90;99.90;;;;;;5019212;28;20029;-82
2023/10/28 07:47:32;;;;;;;8.98;5.65;;;10.90;99.90;;;;;;4982890;28;20021;-79
2023/10/28 07:49:58;;;;;;;9.68;6.05;;;10.90;99.90;;;;;;5016533;28;20033;-83
2023/10/28 07:52:25;;;;;;;7.78;4.75;;;10.90;99.90;;;;;;4996447;28;20041;-81
2023/10/28 07:54:51;;;;;;;7.72;5.38;;;11.00;99.90;;;;;;5000209;28;20044;-86
2023/10/28 07:57:17;;;;;;;8.25;6.20;;;11.00;99.90;;;;;;5001238;28;20569;-84
2023/10/28 07:59:44;;;;;;;11.48;6.57;;;11.00;99.90;;;;;;5018044;28;20436;-85
2023/10/28 08:02:11;;;;;;;10.38;6.05;;;11.10;99.90;;;;;;5017940;28;20357;-80
2023/10/28 08:04:38;;;;;;;7.75;5.00;;;11.10;99.90;;;;;;5002207;28;20396;-80
2023/10/28 08:07:04;;;;;;;6.80;4.93;;;11.10;99.90;;;;;;5010485;28;20034;-85
2023/10/28 08:09:30;;;;;;;15.15;8.05;;;11.20;99.90;;;;;;5016599;28;20466;-78
2023/10/28 08:11:56;;;;;;;9.63;5.88;;;11.20;99.90;;;;;;5014873;28;20302;-78
2023/10/28 08:14:23;;;;;;;11.20;5.90;;;11.30;99.90;;;;;;4983500;28;20033;-80
2023/10/28 08:16:49;;;;;;;10.90;5.63;;;11.30;99.90;;;;;;4998740;28;20044;-82
2023/10/28 08:19:16;;;;;;;6.25;4.70;;;11.30;99.90;;;;;;5000038;28;20033;-83
2023/10/28 08:21:43;;;;;;;9.90;5.00;;;11.30;99.90;;;;;;5029084;28;20034;-80
2023/10/28 08:24:11;;;;;;;6.97;4.28;;;11.30;99.90;;;;;;5030334;28;20056;-80
2023/10/28 08:26:38;;;;;;;9.68;6.05;;;11.30;99.90;;;;;;5033609;28;20040;-80
2023/10/28 08:29:05;;;;;;;6.78;4.97;;;11.20;99.90;;;;;;5049825;28;20040;-78
2023/10/28 08:31:31;;;;;;;9.10;5.53;;;11.20;99.90;;;;;;4989463;28;20052;-86
2023/10/28 08:33:58;;;;;;;7.18;4.45;;;11.30;99.90;;;;;;5019561;28;20388;-83
2023/10/28 08:36:25;;;;;;;12.65;7.03;;;11.30;99.90;;;;;;5003475;28;20029;-84
2023/10/28 08:38:51;;;;;;;7.63;5.03;;;11.30;99.90;;;;;;5019436;28;20042;-85
2023/10/28 08:41:24;;;;;;;6.15;5.30;;;11.30;99.90;;;;;;5002490;28;20025;-79
2023/10/28 08:43:52;;;;;;;7.95;4.78;;;11.40;99.90;;;;;;5019754;28;20037;-79
2023/10/28 08:46:19;;;;;;;7.43;4.88;;;11.30;99.90;;;;;;5019198;28;20044;-78
2023/10/28 08:48:46;;;;;;;8.30;5.45;;;11.40;99.90;;;;;;4984485;28;20033;-78
2023/10/28 08:51:14;;;;;;;9.30;5.55;;;11.40;99.90;;;;;;4981917;28;20033;-77
2023/10/28 08:53:44;;;;;;;8.80;5.63;;;11.40;99.90;;;;;;5031464;28;20392;-81
2023/10/28 08:56:15;;;;;;;8.88;4.93;;;11.40;99.90;;;;;;4993189;28;20808;-78
2023/10/28 08:58:42;;;;;;;6.43;4.15;;;11.50;99.90;;;;;;4995262;28;20037;-77
2023/10/28 09:01:09;;;;;;;8.35;4.10;;;11.50;99.90;;;;;;4997000;28;20368;-78
2023/10/28 09:03:40;;;;;;;8.05;4.93;;;11.50;99.90;;;;;;5016399;28;20057;-79
2023/10/28 09:06:07;;;;;;;10.25;5.50;;;11.60;99.90;;;;;;5017681;28;20028;-78
2023/10/28 09:08:33;;;;;;;6.20;4.32;;;11.60;99.90;;;;;;5012233;28;20417;-78
2023/10/28 09:11:00;;;;;;;9.55;5.90;;;11.60;99.90;;;;;;5016174;28;20049;-78
2023/10/28 09:13:27;;;;;;;7.65;4.18;;;11.80;99.90;;;;;;5001634;28;20041;-79
2023/10/28 09:15:53;;;;;;;7.50;3.70;;;11.80;99.90;;;;;;4999732;28;20025;-79
2023/10/28 09:18:19;;;;;;;9.57;4.25;;;11.90;99.90;;;;;;5000827;28;20032;-79
2023/10/28 09:20:46;;;;;;;9.23;4.82;;;12.00;99.90;;;;;;5015802;28;20037;-79
2023/10/28 09:23:13;;;;;;;10.52;5.03;;;12.10;99.90;;;;;;5012936;28;20040;-79
2023/10/28 09:25:40;;;;;;;7.05;3.08;;;12.20;99.90;;;;;;4999959;28;20034;-79
2023/10/28 09:28:15;;;;;;;8.60;4.65;;;12.20;99.90;;;;;;5017042;28;20502;-79
2023/10/28 09:30:46;;;;;;;9.57;4.45;;;12.30;99.90;;;;;;5015480;28;20033;-80
2023/10/28 09:33:13;;;;;;;7.75;3.80;;;12.30;99.90;;;;;;4999770;28;20025;-80
2023/10/28 09:35:43;;;;;;;7.47;3.10;;;12.30;99.90;;;;;;5016396;28;20029;-80
2023/10/28 09:38:11;;;;;;;9.98;4.53;;;12.30;99.90;;;;;;4985038;28;20033;-80
2023/10/28 09:40:38;;;;;;;8.52;4.07;;;12.40;99.90;;;;;;5016018;28;20045;-79
2023/10/28 09:43:06;;;;;;;10.45;4.82;;;12.40;99.90;;;;;;5000227;28;20372;-80
2023/10/28 09:45:32;;;;;;;6.70;3.88;;;12.40;99.90;;;;;;5015353;28;20071;-79
2023/10/28 09:48:05;;;;;;;6.63;3.45;;;12.40;99.90;;;;;;5015646;28;20037;-80
2023/10/28 09:50:38;;;;;;;7.80;4.18;;;12.40;99.90;;;;;;5015830;28;20034;-80
2023/10/28 09:53:05;;;;;;;;;;;12.40;99.90;;;;;;4984490;28;20411;-80
2023/10/28 09:55:35;;;;;;;7.95;2.95;;;12.50;99.90;;;;;;5015488;28;19947;-80
2023/10/28 09:58:11;;;;;;;6.20;3.78;;;12.50;99.90;;;;;;5016469;28;20041;-81
2023/10/28 10:00:37;;;;;;;9.95;4.30;;;12.70;99.90;;;;;;4980636;28;20041;-79
2023/10/28 10:03:04;;;;;;;7.55;3.75;;;12.80;99.90;;;;;;5021369;28;20024;-80
2023/10/28 10:05:40;;;;;;;6.38;3.25;;;12.80;99.90;;;;;;5020637;28;20040;-81
2023/10/28 10:08:21;;;;;;;9.10;4.05;;;12.90;99.90;;;;;;5018767;28;20033;-81
2023/10/28 10:10:57;;;;;;;8.23;2.85;;;12.90;99.90;;;;;;5050467;28;20049;-80
2023/10/28 10:13:24;;;;;;;7.72;3.45;;;12.90;99.90;;;;;;4984743;28;20713;-80
2023/10/28 10:15:55;;;;;;;6.88;2.88;;;13.00;99.90;;;;;;5020368;28;20025;-79
2023/10/28 10:18:37;;;;;;;6.45;2.67;;;13.00;99.90;;;;;;5000847;28;20030;-78
2023/10/28 10:21:10;;;;;;;6.28;2.40;;;13.00;99.90;;;;;;5050693;28;20461;-78
2023/10/28 10:23:43;;;;;;;7.72;2.63;;;13.00;99.90;;;;;;5015625;28;20034;-78
2023/10/28 10:26:27;;;;;;;5.18;2.60;;;13.00;99.90;;;;;;5034452;28;20502;-77
2023/10/28 10:29:03;;;;;;;7.78;3.20;;;13.00;99.90;;;;;;5000236;28;20033;-77
2023/10/28 10:31:31;;;;;;;7.93;3.97;;;13.00;99.90;;;;;;5030075;28;20036;-77
2023/10/28 10:34:09;;;;;;;5.30;3.47;;;13.00;99.90;;;;;;5016416;28;20033;-80
2023/10/28 10:36:41;;;;;;;4.75;2.28;;;13.00;99.90;;;;;;5017807;28;20723;-79
2023/10/28 10:39:15;;;;;;;8.70;3.10;;;13.10;99.90;;;;;;4999851;28;20037;-79
2023/10/28 10:41:52;;;;;;;5.10;1.63;;;13.10;99.90;;;;;;5012508;28;20370;-78
2023/10/28 10:44:25;;;;;;;7.38;2.22;;;13.20;99.90;;;;;;5045228;28;20038;-80
2023/10/28 10:46:56;;;;;;;6.25;1.90;;;13.30;99.90;;;;;;4996947;28;20052;-80
2023/10/28 10:49:23;;;;;;;7.40;1.50;;;13.30;99.90;;;;;;5016750;28;20041;-79
2023/10/28 10:51:50;;;;;;;8.98;2.85;;;13.30;99.90;;;;;;4999068;28;20040;-79
2023/10/28 10:54:17;;;;;;;14.57;4.05;;;13.30;99.90;;;;;;4998171;28;20033;-80
2023/10/28 10:56:48;;;;;;;6.50;3.92;;;13.30;99.90;;;;;;5016208;28;20038;-79
2023/10/28 10:59:15;;;;;;;8.57;3.25;;;13.30;99.90;;;;;;4998397;28;20033;-80
2023/10/28 11:01:42;;;;;;;6.00;2.15;;;13.40;99.90;;;;;;4983709;28;20469;-81
2023/10/28 11:04:08;;;;;;;4.40;2.00;;;13.40;99.90;;;;;;5016196;28;20033;-81
2023/10/28 11:06:35;;;;;;;7.47;2.10;;;13.40;99.90;;;;;;5014532;28;20033;-77
2023/10/28 11:09:03;;;;;;;4.57;1.30;;;13.30;99.90;;;;;;5017199;28;20029;-80
2023/10/28 11:11:32;;;;;;;6.80;1.23;;;13.40;99.90;;;;;;5016091;28;20033;-80
2023/10/28 11:13:59;;;;;;;5.10;1.25;;;13.30;99.90;;;;;;4998445;28;20029;-80
2023/10/28 11:16:30;;;;;;;6.18;1.25;;;13.30;99.90;;;;;;5047364;28;20040;-80
2023/10/28 11:18:56;;;;;;;6.70;1.10;;;13.30;99.90;;;;;;5015866;28;20033;-80
2023/10/28 11:21:28;;;;;;;13.02;7.22;;;13.30;99.90;;;;;;4998478;28;20029;-81
2023/10/28 11:23:55;;;;;;;11.73;5.60;;;13.30;99.90;;;;;;4980455;28;20033;-80
2023/10/28 11:26:23;;;;;;;8.38;2.20;;;13.40;99.90;;;;;;4998042;28;20396;-83
2023/10/28 11:28:49;;;;;;;5.78;1.55;;;13.40;99.90;;;;;;4998621;28;20491;-81
2023/10/28 11:31:20;;;;;;;7.47;1.58;;;13.40;99.90;;;;;;5015597;28;20033;-82
2023/10/28 11:33:50;;;;;;;7.53;1.58;;;13.50;99.90;;;;;;5015842;28;20033;-86
2023/10/28 11:36:16;;;;;;;4.32;0.93;;;13.60;99.90;;;;;;4998421;28;20036;-79
2023/10/28 11:38:44;;;;;;;4.47;0.80;;;13.80;99.90;;;;;;5015945;28;20065;-82
2023/10/28 11:41:11;;;;;;;6.03;1.10;;;13.90;99.90;;;;;;4998153;28;20048;-82
2023/10/28 11:43:37;;;;;;;4.93;0.80;;;14.10;99.90;;;;;;5000065;28;20060;-83
2023/10/28 11:46:03;;;;;;;6.80;1.30;;;14.20;99.90;;;;;;5015616;28;20030;-82
2023/10/28 11:48:33;;;;;;;4.72;1.17;;;14.10;99.90;;;;;;5048738;28;20036;-84
2023/10/28 11:51:01;;;;;;;5.50;1.05;;;14.00;99.90;;;;;;5015760;28;20034;-87
2023/10/28 11:53:28;;;;;;;4.45;1.15;;;14.00;99.90;;;;;;5016791;28;20056;-85
2023/10/28 11:55:55;;;;;;;3.97;1.00;;;13.90;99.90;;;;;;5014927;28;20543;-81
2023/10/28 11:58:26;;;;;;;4.85;1.00;;;13.90;99.90;;;;;;5014830;28;20026;-81
2023/10/28 12:00:53;;;;;;;5.43;1.17;;;14.00;99.90;;;;;;4992244;28;20041;-81
2023/10/28 12:03:20;;;;;;;5.43;1.58;;;14.00;99.90;;;;;;5018134;28;20033;-81
2023/10/28 12:05:47;;;;;;;6.97;2.50;;;14.00;99.90;;;;;;5001913;28;20040;-80
2023/10/28 12:08:13;;;;;;;7.90;1.60;;;14.00;99.90;;;;;;5017596;28;20037;-80
2023/10/28 12:10:43;;;;;;;3.65;1.30;;;14.10;99.90;;;;;;5015860;28;20025;-83
2023/10/28 12:13:11;;;;;;;7.93;1.40;;;14.20;99.90;;;;;;5014099;28;20029;-83
2023/10/28 12:15:38;;;;;;;4.55;0.75;;;14.20;99.90;;;;;;5003752;28;20045;-84
2023/10/28 12:18:05;;;;;;;4.43;0.85;;;14.30;99.90;;;;;;4981724;28;20036;-82
2023/10/28 12:20:31;;;;;;;5.22;0.80;;;14.40;99.90;;;;;;4999003;28;20030;-83
2023/10/28 12:22:58;;;;;;;6.80;0.90;;;14.50;99.90;;;;;;5047023;28;20025;-79
2023/10/28 12:25:25;;;;;;;7.22;2.00;;;14.50;99.90;;;;;;5014710;28;20040;-80
2023/10/28 12:27:52;;;;;;;8.60;1.38;;;14.50;99.90;;;;;;5012532;28;20033;-80
2023/10/28 12:30:18;;;;;;;7.53;1.17;;;14.40;99.90;;;;;;5030580;28;20030;-79
2023/10/28 12:32:47;;;;;;;5.63;1.02;;;14.40;99.90;;;;;;4997355;28;20040;-79
2023/10/28 12:35:13;;;;;;;6.43;1.10;;;14.50;99.90;;;;;;5008089;28;20029;-81
2023/10/28 12:37:41;;;;;;;7.78;1.33;;;14.50;99.90;;;;;;4995310;28;20048;-80
2023/10/28 12:40:09;;;;;;;6.88;1.15;;;14.50;99.90;;;;;;5011807;28;20046;-80
2023/10/28 12:42:36;;;;;;;6.32;1.10;;;14.50;99.90;;;;;;4995467;28;20669;-79
2023/10/28 12:45:06;;;;;;;8.00;1.25;;;14.50;99.90;;;;;;4999069;28;20036;-80
2023/10/28 12:47:34;;;;;;;7.50;2.10;;;14.50;99.90;;;;;;5011815;28;20052;-79